createdAt,value
2018-10-18T00:02:03.330Z,94452.47
2018-10-18T00:04:32.850Z,94450.13
2018-10-18T00:07:02.153Z,94452.33
2018-10-18T00:09:31.545Z,94449.92
2018-10-18T00:12:00.820Z,94445.85
2018-10-18T00:14:30.154Z,94451.81
2018-10-18T00:16:59.556Z,94443.64
2018-10-18T00:19:29.003Z,94452.50
2018-10-18T00:21:58.525Z,94452.15
2018-10-18T00:24:27.937Z,94444.09
2018-10-18T00:26:57.449Z,94448.77
2018-10-18T00:29:27.170Z,94449.34
2018-10-18T00:31:56.453Z,94449.56
2018-10-18T00:34:26.016Z,94452.37
2018-10-18T00:36:55.495Z,94446.31
2018-10-18T00:39:24.944Z,94451.89
2018-10-18T00:41:54.465Z,94444.44
2018-10-18T00:44:24.117Z,94442.77
2018-10-18T00:46:53.572Z,94446.91
2018-10-18T00:49:23.055Z,94442.48
2018-10-18T00:51:52.439Z,94439.41
2018-10-18T00:54:21.773Z,94437.51
2018-10-18T00:56:51.297Z,94435.77
2018-10-18T00:59:20.639Z,94434.09
2018-10-18T01:01:49.967Z,94437.59
2018-10-18T01:04:19.222Z,94437.90
2018-10-18T01:06:48.697Z,94441.81
2018-10-18T01:09:18.094Z,94435.50
2018-10-18T01:11:47.435Z,94427.64
2018-10-18T01:14:16.788Z,94435.20
2018-10-18T01:16:46.157Z,94438.81
2018-10-18T01:19:15.412Z,94435.70
2018-10-18T01:21:44.808Z,94436.76
2018-10-18T01:24:14.630Z,94437.13
2018-10-18T01:26:44.148Z,94440.58
2018-10-18T01:29:13.430Z,94438.92
2018-10-18T01:31:42.770Z,94437.81
2018-10-18T01:34:12.088Z,94434.20
2018-10-18T01:36:41.586Z,94434.64
2018-10-18T01:39:11.297Z,94433.47
2018-10-18T01:41:41.199Z,94434.94
2018-10-18T01:44:10.769Z,94435.00
2018-10-18T01:46:40.196Z,94432.23
2018-10-18T01:49:09.633Z,94434.02
2018-10-18T01:51:39.029Z,94430.14
2018-10-18T01:54:08.416Z,94433.95
2018-10-18T01:56:37.844Z,94430.22
2018-10-18T01:59:07.306Z,94431.44
2018-10-18T02:01:36.609Z,94431.50
2018-10-18T02:04:12.379Z,94430.81
2018-10-18T02:06:41.674Z,94432.96
2018-10-18T02:09:12.001Z,94435.62
2018-10-18T02:11:41.806Z,94434.70
2018-10-18T02:14:11.293Z,94434.53
2018-10-18T02:16:40.718Z,94432.48
2018-10-18T02:19:10.384Z,94435.08
2018-10-18T02:21:39.477Z,94432.84
2018-10-18T02:24:08.827Z,94436.91
2018-10-18T02:26:38.093Z,94431.25
2018-10-18T02:29:07.655Z,94428.80
2018-10-18T02:31:37.151Z,94425.35
2018-10-18T02:34:06.625Z,94423.52
2018-10-18T02:36:36.101Z,94427.63
2018-10-18T02:39:07.080Z,94423.38
2018-10-18T02:41:36.637Z,94423.89
2018-10-18T02:44:06.101Z,94427.45
2018-10-18T02:46:35.399Z,94431.00
2018-10-18T02:49:04.910Z,94423.32
2018-10-18T02:51:34.319Z,94427.86
2018-10-18T02:54:03.781Z,94427.27
2018-10-18T02:56:33.041Z,94429.11
2018-10-18T02:59:02.454Z,94425.65
2018-10-18T03:01:31.824Z,94426.27
2018-10-18T03:04:01.231Z,94429.89
2018-10-18T03:06:31.357Z,94431.92
2018-10-18T03:09:00.967Z,94429.01
2018-10-18T03:11:30.219Z,94438.38
2018-10-18T03:13:59.623Z,94435.28
2018-10-18T03:16:28.941Z,94429.56
2018-10-18T03:18:58.377Z,94429.93
2018-10-18T03:21:27.691Z,94433.64
2018-10-18T03:23:57.455Z,94434.42
2018-10-18T03:26:26.766Z,94433.55
2018-10-18T03:28:56.466Z,94436.67
2018-10-18T03:31:26.012Z,94438.62
2018-10-18T03:33:55.487Z,94434.31
2018-10-18T03:36:25.161Z,94436.67
2018-10-18T03:38:54.555Z,94439.78
2018-10-18T03:41:23.979Z,94438.69
2018-10-18T03:43:53.715Z,94439.17
2018-10-18T03:46:23.174Z,94443.52
2018-10-18T03:48:52.498Z,94442.04
2018-10-18T03:51:21.837Z,94442.47
2018-10-18T03:53:51.110Z,94446.16
2018-10-18T03:56:20.438Z,94448.98
2018-10-18T03:58:49.833Z,94444.45
2018-10-18T04:01:19.425Z,94440.83
2018-10-18T04:03:48.750Z,94450.59
2018-10-18T04:06:18.450Z,94439.11
2018-10-18T04:08:47.907Z,94438.24
2018-10-18T04:11:17.246Z,94443.22
2018-10-18T04:13:46.602Z,94438.98
2018-10-18T04:16:15.834Z,94440.78
2018-10-18T04:18:45.341Z,94437.53
2018-10-18T04:21:14.726Z,94440.59
2018-10-18T04:23:43.951Z,94431.75
2018-10-18T04:26:13.394Z,94444.70
2018-10-18T04:28:42.760Z,94440.16
2018-10-18T04:31:12.194Z,94437.95
2018-10-18T04:33:41.444Z,94441.22
2018-10-18T04:36:10.914Z,94444.63
2018-10-18T04:38:40.077Z,94444.84
2018-10-18T04:41:09.538Z,94445.25
2018-10-18T04:43:38.849Z,94446.13
2018-10-18T04:46:08.290Z,94443.78
2018-10-18T04:48:37.711Z,94441.33
2018-10-18T04:51:07.176Z,94444.84
2018-10-18T04:53:36.580Z,94449.74
2018-10-18T04:56:05.933Z,94445.59
2018-10-18T04:58:35.169Z,94439.06
2018-10-18T05:01:04.694Z,94435.06
2018-10-18T05:03:33.992Z,94447.20
2018-10-18T05:06:05.049Z,94443.86
2018-10-18T05:08:34.446Z,94443.37
2018-10-18T05:11:03.901Z,94446.70
2018-10-18T05:13:33.307Z,94449.45
2018-10-18T05:16:03.644Z,94456.99
2018-10-18T05:18:32.940Z,94458.81
2018-10-18T05:21:02.299Z,94458.84
2018-10-18T05:23:31.569Z,94455.32
2018-10-18T05:26:01.012Z,94452.15
2018-10-18T05:28:30.605Z,94458.11
2018-10-18T05:31:00.176Z,94457.19
2018-10-18T05:33:29.431Z,94463.38
2018-10-18T05:35:59.008Z,94469.34
2018-10-18T05:38:28.434Z,94469.47
2018-10-18T05:40:57.764Z,94464.44
2018-10-18T05:43:27.130Z,94474.62
2018-10-18T05:45:56.987Z,94478.62
2018-10-18T05:48:26.416Z,94480.33
2018-10-18T05:50:55.801Z,94481.62
2018-10-18T05:53:25.072Z,94484.09
2018-10-18T05:55:54.563Z,94484.33
2018-10-18T05:58:24.040Z,94481.00
2018-10-18T06:00:53.501Z,94489.61
2018-10-18T06:03:22.702Z,94485.53
2018-10-18T06:05:53.372Z,94486.22
2018-10-18T06:08:22.918Z,94483.66
2018-10-18T06:11:03.455Z,94488.99
2018-10-18T06:13:32.684Z,94497.58
2018-10-18T06:16:02.008Z,94498.75
2018-10-18T06:18:31.492Z,94503.25
2018-10-18T06:21:01.137Z,94498.77
2018-10-18T06:23:31.576Z,94496.55
2018-10-18T06:26:00.982Z,94496.00
2018-10-18T06:28:30.515Z,94506.73
2018-10-18T06:30:59.970Z,94499.17
2018-10-18T06:33:29.427Z,94506.48
2018-10-18T06:35:58.839Z,94505.70
2018-10-18T06:38:28.252Z,94509.31
2018-10-18T06:40:57.669Z,94501.88
2018-10-18T06:43:27.916Z,94508.06
2018-10-18T06:45:57.305Z,94506.64
2018-10-18T06:48:27.333Z,94505.68
2018-10-18T06:50:56.869Z,94503.92
2018-10-18T06:53:26.397Z,94513.27
2018-10-18T06:55:55.775Z,94512.02
2018-10-18T06:58:25.201Z,94513.84
2018-10-18T07:00:54.965Z,94513.47
2018-10-18T07:03:24.520Z,94516.90
2018-10-18T07:05:53.954Z,94516.92
2018-10-18T07:08:23.734Z,94513.97
2018-10-18T07:10:53.355Z,94512.78
2018-10-18T07:13:22.599Z,94511.08
2018-10-18T07:15:53.601Z,94507.97
2018-10-18T07:18:23.041Z,94510.72
2018-10-18T07:20:52.454Z,94507.17
2018-10-18T07:23:21.904Z,94506.83
2018-10-18T07:25:51.303Z,94507.78
2018-10-18T07:28:20.630Z,94499.47
2018-10-18T07:30:50.237Z,94504.26
2018-10-18T07:33:19.878Z,94504.06
2018-10-18T07:35:49.329Z,94501.86
2018-10-18T07:38:18.599Z,94510.65
2018-10-18T07:40:47.916Z,94502.98
2018-10-18T07:43:17.381Z,94503.97
2018-10-18T07:45:46.911Z,94504.69
2018-10-18T07:48:16.637Z,94507.97
2018-10-18T07:50:46.016Z,94507.84
2018-10-18T07:53:15.557Z,94502.82
2018-10-18T07:55:44.843Z,94499.63
2018-10-18T07:58:14.357Z,94502.17
2018-10-18T08:00:43.838Z,94508.30
2018-10-18T08:03:13.169Z,94497.78
2018-10-18T08:05:42.631Z,94506.69
2018-10-18T08:08:12.206Z,94504.41
2018-10-18T08:10:41.429Z,94503.34
2018-10-18T08:13:11.088Z,94500.52
2018-10-18T08:15:40.549Z,94498.36
2018-10-18T08:18:10.068Z,94494.28
2018-10-18T08:20:39.516Z,94494.25
2018-10-18T08:23:08.807Z,94492.41
2018-10-18T08:25:38.224Z,94491.80
2018-10-18T08:28:07.482Z,94493.53
2018-10-18T08:30:37.049Z,94489.17
2018-10-18T08:33:06.757Z,94492.60
2018-10-18T08:35:36.258Z,94486.36
2018-10-18T08:38:05.979Z,94484.48
2018-10-18T08:40:35.494Z,94476.61
2018-10-18T08:43:05.683Z,94480.47
2018-10-18T08:45:34.898Z,94478.11
2018-10-18T08:48:04.189Z,94479.17
2018-10-18T08:50:33.447Z,94476.10
2018-10-18T08:53:02.793Z,94472.64
2018-10-18T08:55:32.098Z,94474.58
2018-10-18T08:58:01.423Z,94470.81
2018-10-18T09:00:31.264Z,94464.88
2018-10-18T09:03:00.735Z,94465.14
2018-10-18T09:05:30.258Z,94466.51
2018-10-18T09:07:59.859Z,94462.47
2018-10-18T09:10:29.270Z,94454.30
2018-10-18T09:12:59.668Z,94451.11
2018-10-18T09:15:29.662Z,94450.50
2018-10-18T09:17:59.039Z,94448.08
2018-10-18T09:20:28.485Z,94446.91
2018-10-18T09:22:58.047Z,94449.91
2018-10-18T09:25:27.291Z,94443.83
2018-10-18T09:27:56.608Z,94442.60
2018-10-18T09:30:26.101Z,94438.38
2018-10-18T09:32:55.536Z,94435.61
2018-10-18T09:35:24.945Z,94432.94
2018-10-18T09:37:54.424Z,94436.70
2018-10-18T09:40:23.744Z,94428.06
2018-10-18T09:42:53.211Z,94427.70
2018-10-18T09:45:22.613Z,94431.28
2018-10-18T09:47:52.103Z,94424.43
2018-10-18T09:50:21.384Z,94427.26
2018-10-18T09:52:50.695Z,94427.36
2018-10-18T09:55:20.086Z,94423.81
2018-10-18T09:57:49.599Z,94417.38
2018-10-18T10:00:23.957Z,94414.60
2018-10-18T10:02:58.176Z,94408.22
2018-10-18T10:05:27.602Z,94403.60
2018-10-18T10:07:56.947Z,94398.38
2018-10-18T10:10:26.367Z,94384.02
2018-10-18T10:12:55.814Z,94389.03
2018-10-18T10:15:25.121Z,94384.33
2018-10-18T10:17:55.669Z,94382.47
2018-10-18T10:20:25.495Z,94380.78
2018-10-18T10:22:55.841Z,94373.89
2018-10-18T10:25:25.487Z,94369.78
2018-10-18T10:27:55.309Z,94366.86
2018-10-18T10:30:24.810Z,94360.87
2018-10-18T10:32:54.352Z,94355.34
2018-10-18T10:35:23.746Z,94346.37
2018-10-18T10:37:53.780Z,94341.10
2018-10-18T10:40:23.115Z,94338.73
2018-10-18T10:42:52.658Z,94340.05
2018-10-18T10:45:22.233Z,94333.38
2018-10-18T10:47:52.176Z,94329.28
2018-10-18T10:50:21.487Z,94324.80
2018-10-18T10:52:50.884Z,94321.63
2018-10-18T10:55:20.263Z,94314.28
2018-10-18T10:57:49.544Z,94309.77
2018-10-18T11:01:29.502Z,94316.39
2018-10-18T11:04:00.634Z,94308.67
2018-10-18T11:06:30.030Z,94307.16
2018-10-18T11:08:59.408Z,94304.06
2018-10-18T11:11:28.873Z,94299.27
2018-10-18T11:13:58.456Z,94293.48
2018-10-18T11:16:28.704Z,94290.81
2018-10-18T11:18:57.936Z,94284.64
2018-10-18T11:21:27.397Z,94279.87
2018-10-18T11:23:57.324Z,94275.05
2018-10-18T11:26:26.827Z,94268.59
2018-10-18T11:28:56.337Z,94268.67
2018-10-18T11:31:25.737Z,94266.89
2018-10-18T11:33:54.966Z,94256.98
2018-10-18T11:36:24.368Z,94257.89
2018-10-18T11:38:53.785Z,94257.97
2018-10-18T11:41:24.061Z,94255.22
2018-10-18T11:43:54.037Z,94247.52
2018-10-18T11:46:23.418Z,94245.33
2018-10-18T11:48:52.827Z,94244.00
2018-10-18T11:51:22.244Z,94237.71
2018-10-18T11:53:51.698Z,94235.70
2018-10-18T11:56:21.191Z,94233.38
2018-10-18T11:58:50.837Z,94238.27
2018-10-18T12:01:20.510Z,94230.56
2018-10-18T12:03:49.758Z,94225.91
2018-10-18T12:06:19.104Z,94223.59
2018-10-18T12:08:49.361Z,94223.20
2018-10-18T12:11:18.942Z,94216.52
2018-10-18T12:13:48.474Z,94215.77
2018-10-18T12:16:17.774Z,94215.92
2018-10-18T12:18:47.231Z,94214.92
2018-10-18T12:21:17.386Z,94211.27
2018-10-18T12:23:47.067Z,94212.72
2018-10-18T12:26:16.794Z,94205.20
2018-10-18T12:28:46.141Z,94205.37
2018-10-18T12:31:16.666Z,94204.48
2018-10-18T12:33:46.181Z,94203.95
2018-10-18T12:36:16.101Z,94201.13
2018-10-18T12:38:45.499Z,94205.91
2018-10-18T12:41:15.301Z,94199.73
2018-10-18T12:43:44.721Z,94200.76
2018-10-18T12:46:14.257Z,94196.52
2018-10-18T12:48:43.448Z,94203.28
2018-10-18T12:51:12.893Z,94204.81
2018-10-18T12:53:42.689Z,94199.34
2018-10-18T12:56:12.264Z,94197.41
2018-10-18T12:58:41.718Z,94206.06
2018-10-18T13:01:11.111Z,94201.03
2018-10-18T13:03:40.912Z,94201.86
2018-10-18T13:06:10.342Z,94196.56
2018-10-18T13:08:39.829Z,94203.47
2018-10-18T13:11:09.233Z,94201.88
2018-10-18T13:13:38.641Z,94197.91
2018-10-18T13:16:08.060Z,94191.48
2018-10-18T13:18:37.562Z,94189.67
2018-10-18T13:21:07.202Z,94187.80
2018-10-18T13:23:36.775Z,94187.14
2018-10-18T13:26:06.603Z,94191.39
2018-10-18T13:28:36.589Z,94191.05
2018-10-18T13:31:06.197Z,94190.77
2018-10-18T13:33:35.910Z,94188.50
2018-10-18T13:36:05.722Z,94189.00
2018-10-18T13:38:35.119Z,94184.17
2018-10-18T13:41:04.378Z,94188.24
2018-10-18T13:43:33.718Z,94193.72
2018-10-18T13:46:02.883Z,94190.92
2018-10-18T13:48:32.331Z,94189.25
2018-10-18T13:51:01.611Z,94190.52
2018-10-18T13:53:36.145Z,94187.17
2018-10-18T13:56:06.497Z,94184.64
2018-10-18T13:58:36.089Z,94179.87
2018-10-18T14:01:05.479Z,94179.64
2018-10-18T14:03:34.749Z,94177.45
2018-10-18T14:06:04.153Z,94185.08
2018-10-18T14:08:34.316Z,94192.90
2018-10-18T14:11:04.700Z,94181.09
2018-10-18T14:13:34.418Z,94185.72
2018-10-18T14:16:03.873Z,94181.73
2018-10-18T14:18:33.547Z,94180.19
2018-10-18T14:21:04.012Z,94182.59
2018-10-18T14:23:33.824Z,94179.30
2018-10-18T14:26:04.476Z,94180.58
2018-10-18T14:28:34.186Z,94173.03
2018-10-18T14:31:04.110Z,94180.69
2018-10-18T14:33:33.663Z,94174.19
2018-10-18T14:36:03.066Z,94182.64
2018-10-18T14:38:32.701Z,94178.59
2018-10-18T14:41:02.324Z,94179.22
2018-10-18T14:43:32.928Z,94180.28
2018-10-18T14:46:03.227Z,94179.50
2018-10-18T14:48:32.706Z,94180.78
2018-10-18T14:51:02.329Z,94185.30
2018-10-18T14:53:31.621Z,94177.37
2018-10-18T14:56:01.028Z,94181.53
2018-10-18T14:58:30.803Z,94191.34
2018-10-18T15:01:00.543Z,94184.05
2018-10-18T15:03:31.088Z,94189.02
2018-10-18T15:06:00.733Z,94190.11
2018-10-18T15:08:30.295Z,94195.36
2018-10-18T15:11:00.106Z,94194.84
2018-10-18T15:13:29.974Z,94191.16
2018-10-18T15:16:00.375Z,94201.15
2018-10-18T15:18:30.252Z,94195.13
2018-10-18T15:21:00.738Z,94199.06
2018-10-18T15:23:31.949Z,94202.20
2018-10-18T15:26:01.855Z,94195.59
2018-10-18T15:28:31.683Z,94201.88
2018-10-18T15:31:01.066Z,94193.98
2018-10-18T15:33:30.559Z,94199.48
2018-10-18T15:36:00.113Z,94202.09
2018-10-18T15:38:31.896Z,94205.75
2018-10-18T15:41:01.476Z,94204.97
2018-10-18T15:43:31.224Z,94216.20
2018-10-18T15:46:01.117Z,94218.78
2018-10-18T15:48:32.086Z,94213.77
2018-10-18T15:51:02.031Z,94223.47
2018-10-18T15:53:32.129Z,94216.39
2018-10-18T15:56:02.972Z,94222.39
2018-10-18T15:58:35.117Z,94220.71
2018-10-18T16:01:05.304Z,94225.53
2018-10-18T16:03:35.978Z,94228.21
2018-10-18T16:06:06.501Z,94229.47
2018-10-18T16:08:36.297Z,94235.98
2018-10-18T16:11:06.184Z,94238.56
2018-10-18T16:13:37.593Z,94238.87
2018-10-18T16:16:07.605Z,94247.52
2018-10-18T16:18:38.177Z,94249.58
2018-10-18T16:21:08.598Z,94246.71
2018-10-18T16:23:38.058Z,94249.59
2018-10-18T16:26:07.715Z,94254.30
2018-10-18T16:28:37.382Z,94261.06
2018-10-18T16:31:06.900Z,94265.12
2018-10-18T16:33:36.263Z,94268.00
2018-10-18T16:36:07.116Z,94272.98
2018-10-18T16:38:36.640Z,94273.09
2018-10-18T16:41:07.279Z,94279.84
2018-10-18T16:43:36.847Z,94287.22
2018-10-18T16:46:06.791Z,94291.03
2018-10-18T16:48:37.003Z,94297.63
2018-10-18T16:51:06.677Z,94304.24
2018-10-18T16:53:36.341Z,94303.97
2018-10-18T16:56:07.777Z,94311.34
2018-10-18T16:58:37.457Z,94313.47
2018-10-18T17:01:07.230Z,94318.14
2018-10-18T17:03:37.496Z,94316.77
2018-10-18T17:06:07.399Z,94326.72
2018-10-18T17:08:38.077Z,94327.85
2018-10-18T17:11:08.490Z,94332.47
2018-10-18T17:13:38.004Z,94335.34
2018-10-18T17:16:07.885Z,94342.61
2018-10-18T17:18:37.445Z,94337.44
2018-10-18T17:21:08.874Z,94344.05
2018-10-18T17:23:38.726Z,94343.64
2018-10-18T17:26:08.735Z,94351.60
2018-10-18T17:28:38.643Z,94353.84
2018-10-18T17:31:08.077Z,94354.56
2018-10-18T17:33:37.765Z,94357.80
2018-10-18T17:36:07.447Z,94359.83
2018-10-18T17:38:37.004Z,94356.08
2018-10-18T17:41:06.694Z,94356.86
2018-10-18T17:43:37.061Z,94360.29
2018-10-18T17:46:06.911Z,94363.81
2018-10-18T17:48:36.665Z,94353.70
2018-10-18T17:51:06.239Z,94361.44
2018-10-18T17:53:36.123Z,94366.67
2018-10-18T17:56:06.079Z,94366.44
2018-10-18T17:58:37.440Z,94372.19
2018-10-18T18:01:07.988Z,94375.47
2018-10-18T18:03:40.691Z,94371.87
2018-10-18T18:06:12.467Z,94379.48
2018-10-18T18:08:41.927Z,94385.07
2018-10-18T18:11:11.875Z,94389.44
2018-10-18T18:13:41.254Z,94394.77
2018-10-18T18:16:10.942Z,94393.23
2018-10-18T18:18:40.430Z,94394.13
2018-10-18T18:21:10.671Z,94401.42
2018-10-18T18:23:40.307Z,94399.17
2018-10-18T18:26:09.788Z,94398.41
2018-10-18T18:28:39.339Z,94402.07
2018-10-18T18:31:09.715Z,94408.01
2018-10-18T18:33:39.132Z,94402.41
2018-10-18T18:36:08.800Z,94404.75
2018-10-18T18:38:38.629Z,94412.17
2018-10-18T18:41:08.043Z,94405.27
2018-10-18T18:43:37.537Z,94407.92
2018-10-18T18:46:07.096Z,94414.41
2018-10-18T18:48:36.955Z,94420.66
2018-10-18T18:51:07.034Z,94421.23
2018-10-18T18:53:36.741Z,94420.09
2018-10-18T18:56:06.317Z,94422.87
2018-10-18T18:58:35.884Z,94424.53
2018-10-18T19:01:05.749Z,94427.00
2018-10-18T19:03:35.156Z,94430.03
2018-10-18T19:06:05.872Z,94435.26
2018-10-18T19:08:35.416Z,94440.95
2018-10-18T19:11:05.096Z,94437.26
2018-10-18T19:13:34.691Z,94437.73
2018-10-18T19:16:04.262Z,94441.86
2018-10-18T19:18:33.626Z,94440.44
2018-10-18T19:21:03.271Z,94443.11
2018-10-18T19:23:32.985Z,94443.67
2018-10-18T19:26:02.373Z,94445.84
2018-10-18T19:28:32.803Z,94451.92
2018-10-18T19:31:02.279Z,94455.55
2018-10-18T19:33:31.910Z,94451.25
2018-10-18T19:36:01.310Z,94451.11
2018-10-18T19:38:31.024Z,94456.70
2018-10-18T19:41:00.326Z,94459.23
2018-10-18T19:43:29.959Z,94467.92
2018-10-18T19:45:59.479Z,94469.23
2018-10-18T19:48:28.882Z,94475.90
2018-10-18T19:50:58.370Z,94474.33
2018-10-18T19:53:27.806Z,94476.94
2018-10-18T19:55:57.196Z,94480.84
2018-10-18T19:58:26.488Z,94475.74
2018-10-18T20:00:55.844Z,94489.59
2018-10-18T20:03:25.265Z,94491.02
2018-10-18T20:05:54.729Z,94490.52
2018-10-18T20:08:24.333Z,94485.59
2018-10-18T20:10:53.797Z,94482.19
2018-10-18T20:13:23.376Z,94480.13
2018-10-18T20:15:52.900Z,94493.30
2018-10-18T20:18:22.488Z,94489.95
2018-10-18T20:20:52.848Z,94494.60
2018-10-18T20:23:22.304Z,94489.98
2018-10-18T20:25:52.132Z,94492.88
2018-10-18T20:28:22.626Z,94489.92
2018-10-18T20:30:51.987Z,94497.59
2018-10-18T20:33:22.214Z,94504.27
2018-10-18T20:35:51.583Z,94505.64
2018-10-18T20:38:21.674Z,94508.75
2018-10-18T20:40:51.112Z,94508.68
2018-10-18T20:43:21.060Z,94509.09
2018-10-18T20:45:50.693Z,94509.75
2018-10-18T20:48:20.115Z,94514.98
2018-10-18T20:50:50.852Z,94517.06
2018-10-18T20:53:20.148Z,94519.05
2018-10-18T20:55:49.728Z,94521.28
2018-10-18T20:58:20.129Z,94521.78
2018-10-18T21:00:49.990Z,94527.30
2018-10-18T21:03:19.364Z,94528.94
2018-10-18T21:05:48.682Z,94524.00
2018-10-18T21:08:18.109Z,94526.20
2018-10-18T21:10:47.677Z,94522.87
2018-10-18T21:13:17.183Z,94524.18
2018-10-18T21:15:46.684Z,94522.48
2018-10-18T21:18:17.889Z,94526.05
2018-10-18T21:20:47.547Z,94529.03
2018-10-18T21:23:16.993Z,94522.29
2018-10-18T21:25:46.271Z,94530.91
2018-10-18T21:28:16.888Z,94523.74
2018-10-18T21:30:46.214Z,94529.00
2018-10-18T21:33:15.552Z,94519.73
2018-10-18T21:35:44.979Z,94527.98
2018-10-18T21:38:14.378Z,94528.73
2018-10-18T21:40:43.680Z,94523.22
2018-10-18T21:43:13.156Z,94529.69
2018-10-18T21:45:42.516Z,94525.60
2018-10-18T21:48:12.098Z,94529.14
2018-10-18T21:50:41.483Z,94530.95
2018-10-18T21:53:10.886Z,94533.20
2018-10-18T21:55:40.292Z,94534.29
2018-10-18T21:58:09.788Z,94532.73
2018-10-18T22:00:45.417Z,94530.92
2018-10-18T22:03:14.920Z,94541.70
2018-10-18T22:05:44.216Z,94532.97
2018-10-18T22:08:13.496Z,94531.38
2018-10-18T22:10:42.993Z,94525.75
2018-10-18T22:13:12.445Z,94530.07
2018-10-18T22:15:41.633Z,94529.35
2018-10-18T22:18:11.281Z,94529.06
2018-10-18T22:20:40.724Z,94538.28
2018-10-18T22:23:10.290Z,94534.14
2018-10-18T22:25:40.158Z,94541.36
2018-10-18T22:28:09.690Z,94547.73
2018-10-18T22:30:39.255Z,94541.91
2018-10-18T22:33:08.752Z,94552.73
2018-10-18T22:35:38.037Z,94546.25
2018-10-18T22:38:07.555Z,94545.66
2018-10-18T22:40:36.857Z,94546.66
2018-10-18T22:43:06.411Z,94552.59
2018-10-18T22:45:35.693Z,94545.93
2018-10-18T22:48:04.999Z,94553.77
2018-10-18T22:50:34.266Z,94553.70
2018-10-18T22:53:03.521Z,94555.41
2018-10-18T22:55:32.853Z,94552.54
2018-10-18T22:58:02.226Z,94553.09
2018-10-18T23:00:31.725Z,94551.61
2018-10-18T23:03:01.169Z,94552.05
2018-10-18T23:05:30.991Z,94539.88
2018-10-18T23:08:00.293Z,94540.25
2018-10-18T23:10:29.681Z,94540.38
2018-10-18T23:12:59.016Z,94542.94
2018-10-18T23:15:28.437Z,94549.27
2018-10-18T23:17:57.938Z,94548.69
2018-10-18T23:20:27.374Z,94548.27
2018-10-18T23:22:56.832Z,94544.80
2018-10-18T23:25:26.526Z,94546.38
2018-10-18T23:27:55.791Z,94550.78
2018-10-18T23:30:25.089Z,94552.25
2018-10-18T23:32:54.522Z,94550.20
2018-10-18T23:35:23.963Z,94550.76
2018-10-18T23:37:53.540Z,94544.42
2018-10-18T23:40:23.023Z,94552.39
2018-10-18T23:42:52.269Z,94550.42
2018-10-18T23:45:22.504Z,94549.34
2018-10-18T23:47:53.012Z,94548.15
2018-10-18T23:50:22.755Z,94550.53
2018-10-18T23:52:52.187Z,94549.59
2018-10-18T23:55:21.400Z,94543.89
2018-10-18T23:57:50.809Z,94543.69
